Time;durP1;ratioP1;P1;durP2;ratioP2;P2;SDS_P1;SDS_P2;PMS_P1;PMS_P2;Temp;Humidity;BMP_temperature;BMP_pressure;BME280_temperature;BME280_humidity;BME280_pressure;Samples;Min_cycle;Max_cycle;Signal;HPM_P1;HPM_P2
2023/04/02 00:01:35;;;;;;;5.18;3.10;;;11.40;99.90;;;;;;5001927;28;20029;-89
2023/04/02 00:04:21;;;;;;;4.22;2.45;;;11.40;99.90;;;;;;4981571;28;20026;-90
2023/04/02 00:06:53;;;;;;;4.97;2.75;;;11.30;99.90;;;;;;4995032;28;20150;-89
2023/04/02 00:09:30;;;;;;;4.03;2.67;;;11.30;99.90;;;;;;5011704;28;20040;-88
2023/04/02 00:11:56;;;;;;;4.30;2.53;;;11.30;99.90;;;;;;5009563;28;20112;-90
2023/04/02 00:14:32;;;;;;;5.13;2.63;;;11.30;99.90;;;;;;5016539;28;20025;-88
2023/04/02 00:17:01;;;;;;;4.30;2.58;;;11.30;99.90;;;;;;4999530;28;20040;-90
2023/04/02 00:19:35;;;;;;;4.28;2.67;;;11.30;99.90;;;;;;4977847;28;20056;-89
2023/04/02 00:22:05;;;;;;;5.40;3.25;;;11.30;99.90;;;;;;5013914;28;20021;-89
2023/04/02 00:24:32;;;;;;;5.37;2.97;;;11.20;99.90;;;;;;5005874;28;20030;-89
2023/04/02 00:26:58;;;;;;;4.47;2.67;;;11.20;99.90;;;;;;5013543;28;20049;-90
2023/04/02 00:29:24;;;;;;;5.78;3.10;;;11.20;99.90;;;;;;5020040;28;20054;-88
2023/04/02 00:31:51;;;;;;;6.28;3.40;;;11.10;99.90;;;;;;5014479;28;20495;-89
2023/04/02 00:34:36;;;;;;;4.97;2.90;;;11.10;99.90;;;;;;5005402;28;20490;-90
2023/04/02 00:37:03;;;;;;;4.88;2.90;;;11.00;99.90;;;;;;4990657;28;20052;-89
2023/04/02 00:39:31;;;;;;;4.90;2.92;;;11.00;99.90;;;;;;5006027;28;20021;-88
2023/04/02 00:42:04;;;;;;;5.10;2.97;;;11.00;99.90;;;;;;5010432;28;20403;-91
2023/04/02 00:44:37;;;;;;;6.50;3.72;;;11.00;99.90;;;;;;4994308;28;20033;-88
2023/04/02 00:47:25;;;;;;;6.83;3.83;;;11.00;99.90;;;;;;5000191;28;20167;-90
2023/04/02 00:50:05;;;;;;;5.80;3.38;;;10.90;99.90;;;;;;5008222;28;20251;-90
2023/04/02 00:52:31;;;;;;;5.85;3.47;;;10.90;99.90;;;;;;4968952;28;20254;-88
2023/04/02 00:55:15;;;;;;;5.82;3.53;;;10.80;99.90;;;;;;5006530;28;20077;-88
2023/04/02 00:57:43;;;;;;;5.63;3.28;;;10.80;99.90;;;;;;5007707;28;20199;-89
2023/04/02 01:00:20;;;;;;;5.80;3.30;;;10.80;99.90;;;;;;5009542;28;20458;-89
2023/04/02 01:03:12;;;;;;;5.43;3.13;;;10.70;99.90;;;;;;5013831;28;20049;-88
2023/04/02 01:05:41;;;;;;;5.75;2.97;;;10.70;99.90;;;;;;4975027;28;20092;-88
2023/04/02 01:08:33;;;;;;;4.65;2.90;;;10.70;99.90;;;;;;4997168;28;20634;-89
2023/04/02 01:11:17;;;;;;;5.50;2.95;;;10.70;99.90;;;;;;4988927;28;20025;-90
2023/04/02 01:13:49;;;;;;;5.70;3.20;;;10.60;99.90;;;;;;4995148;28;20033;-88
2023/04/02 01:16:19;;;;;;;5.38;2.90;;;10.60;99.90;;;;;;5000042;28;20072;-87
2023/04/02 01:19:07;;;;;;;6.07;3.20;;;10.60;99.90;;;;;;5014320;28;20041;-90
2023/04/02 01:21:52;;;;;;;5.72;3.13;;;10.60;99.90;;;;;;4976253;28;20511;-88
2023/04/02 01:24:19;;;;;;;5.63;3.00;;;10.60;99.90;;;;;;5008857;28;20032;-88
2023/04/02 01:27:02;;;;;;;5.70;3.20;;;10.50;99.90;;;;;;4986110;28;20223;-89
2023/04/02 01:29:37;;;;;;;5.68;3.15;;;10.50;99.90;;;;;;5000340;28;20769;-90
2023/04/02 01:32:11;;;;;;;5.40;2.90;;;10.50;99.90;;;;;;4994773;28;20182;-90
2023/04/02 01:34:38;;;;;;;5.13;2.97;;;10.50;99.90;;;;;;5014367;28;20112;-91
2023/04/02 01:37:31;;;;;;;5.32;3.15;;;10.50;99.90;;;;;;4990772;28;20219;-89
2023/04/02 01:40:30;;;;;;;5.10;2.83;;;10.50;99.90;;;;;;4992467;28;20040;-89
2023/04/02 01:43:24;;;;;;;7.10;2.80;;;10.50;99.90;;;;;;4984275;28;20087;-87
2023/04/02 01:45:51;;;;;;;5.50;2.90;;;10.50;99.90;;;;;;4987330;28;20042;-89
2023/04/02 01:48:20;;;;;;;5.75;3.20;;;10.40;99.90;;;;;;4999690;28;20041;-88
2023/04/02 01:50:50;;;;;;;5.32;2.88;;;10.40;99.90;;;;;;4998235;28;20021;-88
2023/04/02 01:53:17;;;;;;;6.53;3.57;;;10.40;99.90;;;;;;4987971;28;20018;-89
2023/04/02 01:55:51;;;;;;;5.35;3.25;;;10.40;99.90;;;;;;5008658;28;20386;-89
2023/04/02 01:58:22;;;;;;;5.47;3.20;;;10.40;99.90;;;;;;4990272;28;20455;-89
2023/04/02 02:01:13;;;;;;;5.55;3.08;;;10.40;99.90;;;;;;4992749;28;20021;-89
2023/04/02 02:03:42;;;;;;;5.07;2.88;;;10.40;99.90;;;;;;4997514;28;20463;-87
2023/04/02 02:06:12;;;;;;;6.27;3.70;;;10.30;99.90;;;;;;4993869;28;20021;-89
2023/04/02 02:08:37;;;;;;;7.53;4.03;;;10.30;99.90;;;;;;4994775;28;20084;-90
2023/04/02 02:11:04;;;;;;;7.13;3.90;;;10.30;99.90;;;;;;5007796;28;20879;-87
2023/04/02 02:13:31;;;;;;;6.20;3.40;;;10.30;99.90;;;;;;4988740;28;20272;-90
2023/04/02 02:16:02;;;;;;;6.25;3.47;;;10.30;99.90;;;;;;4988134;28;20052;-88
2023/04/02 02:18:31;;;;;;;5.63;3.30;;;10.30;99.90;;;;;;4997567;28;20032;-91
2023/04/02 02:20:59;;;;;;;5.32;2.95;;;10.20;99.90;;;;;;5002817;28;20025;-91
2023/04/02 02:23:28;;;;;;;5.82;3.60;;;10.20;99.90;;;;;;4975210;28;20488;-86
2023/04/02 02:25:55;;;;;;;5.63;3.40;;;10.30;99.90;;;;;;5007507;28;20092;-89
2023/04/02 02:28:32;;;;;;;7.55;4.10;;;10.30;99.90;;;;;;4991489;28;20085;-89
2023/04/02 02:31:05;;;;;;;6.85;3.72;;;10.20;99.90;;;;;;4987254;28;20414;-89
2023/04/02 02:33:45;;;;;;;7.53;4.10;;;10.20;99.90;;;;;;5001407;28;20057;-88
2023/04/02 02:36:15;;;;;;;7.30;4.10;;;10.20;99.90;;;;;;4993826;28;20043;-86
2023/04/02 02:38:43;;;;;;;6.40;3.97;;;10.20;99.90;;;;;;4979977;28;20574;-89
2023/04/02 02:41:40;;;;;;;6.85;4.00;;;10.20;99.90;;;;;;4995572;28;20100;-89
2023/04/02 02:44:11;;;;;;;6.40;3.85;;;10.10;99.90;;;;;;4978149;28;20071;-88
2023/04/02 02:46:42;;;;;;;6.60;3.50;;;10.10;99.90;;;;;;5008194;28;20042;-89
2023/04/02 02:49:15;;;;;;;7.72;4.38;;;10.10;99.90;;;;;;5015132;28;20087;-90
2023/04/02 02:51:48;;;;;;;7.87;4.70;;;10.10;99.90;;;;;;5017374;28;20715;-88
2023/04/02 02:54:18;;;;;;;7.40;4.32;;;10.10;99.90;;;;;;4975281;28;20345;-89
2023/04/02 02:56:50;;;;;;;7.75;4.30;;;10.00;99.90;;;;;;5015195;28;20029;-88
2023/04/02 02:59:18;;;;;;;7.78;4.57;;;10.00;99.90;;;;;;5008651;28;20415;-91
2023/04/02 03:01:46;;;;;;;8.13;4.70;;;10.00;99.90;;;;;;5008480;28;20045;-89
2023/04/02 03:04:12;;;;;;;7.67;4.50;;;10.00;99.90;;;;;;5012433;28;20159;-88
2023/04/02 03:06:39;;;;;;;7.38;4.50;;;10.00;99.90;;;;;;4997890;28;20525;-88
2023/04/02 03:09:20;;;;;;;8.18;4.63;;;10.00;99.90;;;;;;4979536;28;20084;-88
2023/04/02 03:12:22;;;;;;;7.13;4.20;;;10.00;99.90;;;;;;5017036;28;20037;-89
2023/04/02 03:15:02;;;;;;;8.10;4.28;;;10.00;99.90;;;;;;4992393;28;20480;-87
2023/04/02 03:17:44;;;;;;;8.47;5.03;;;10.00;99.90;;;;;;4981981;28;20029;-87
2023/04/02 03:20:33;;;;;;;8.68;4.60;;;9.90;99.90;;;;;;5015270;28;20048;-90
2023/04/02 03:23:11;;;;;;;9.93;5.28;;;9.90;99.90;;;;;;4981717;28;20407;-90
2023/04/02 03:26:09;;;;;;;7.72;4.57;;;9.90;99.90;;;;;;4995924;28;20038;-89
2023/04/02 03:28:40;;;;;;;8.20;4.68;;;9.90;99.90;;;;;;4976557;28;20351;-88
2023/04/02 03:31:40;;;;;;;8.20;4.70;;;9.90;99.90;;;;;;4981969;28;20073;-88
2023/04/02 03:34:27;;;;;;;7.32;4.18;;;9.90;99.90;;;;;;4983381;28;20231;-89
2023/04/02 03:37:09;;;;;;;6.93;3.97;;;9.90;99.90;;;;;;4975257;28;20156;-89
2023/04/02 03:39:43;;;;;;;8.48;4.70;;;9.90;99.90;;;;;;4993930;28;20034;-90
2023/04/02 03:42:24;;;;;;;7.80;4.50;;;9.90;99.90;;;;;;4966431;28;20311;-88
2023/04/02 03:45:17;;;;;;;7.33;4.40;;;9.90;99.90;;;;;;4965128;28;20269;-90
2023/04/02 03:47:51;;;;;;;7.22;4.35;;;9.90;99.90;;;;;;4964860;28;20290;-92
2023/04/02 03:50:21;;;;;;;7.55;4.40;;;9.90;99.90;;;;;;4988212;28;20026;-89
2023/04/02 03:52:47;;;;;;;9.13;5.40;;;9.90;99.90;;;;;;4994293;28;20331;-90
2023/04/02 03:55:35;;;;;;;9.27;5.32;;;9.90;99.90;;;;;;4975641;28;20029;-89
2023/04/02 03:58:03;;;;;;;9.33;4.97;;;9.90;99.90;;;;;;4982097;28;20022;-88
2023/04/02 04:00:29;;;;;;;8.48;4.88;;;9.80;99.90;;;;;;4990491;28;20089;-89
2023/04/02 04:03:01;;;;;;;7.85;4.50;;;9.80;99.90;;;;;;4981552;28;20212;-90
2023/04/02 04:05:36;;;;;;;8.70;5.25;;;9.80;99.90;;;;;;4990234;28;20022;-88
2023/04/02 04:08:06;;;;;;;9.85;5.50;;;9.80;99.90;;;;;;4981382;28;20800;-89
2023/04/02 04:10:33;;;;;;;10.63;5.83;;;9.70;99.90;;;;;;4960968;28;20069;-89
2023/04/02 04:13:08;;;;;;;9.32;5.57;;;9.70;99.90;;;;;;4959039;28;20115;-88
2023/04/02 04:15:59;;;;;;;8.68;5.10;;;9.80;99.90;;;;;;4974567;28;20237;-90
2023/04/02 04:18:48;;;;;;;8.50;5.10;;;9.70;99.90;;;;;;4981160;28;20416;-90
2023/04/02 04:21:36;;;;;;;8.82;4.90;;;9.70;99.90;;;;;;4988257;28;20135;-90
2023/04/02 04:24:15;;;;;;;13.00;6.80;;;9.70;99.90;;;;;;4983303;28;20476;-89
2023/04/02 04:26:40;;;;;;;11.40;5.95;;;9.60;99.90;;;;;;4960295;28;20029;-89
2023/04/02 04:29:32;;;;;;;14.37;7.07;;;9.60;99.90;;;;;;5003723;28;20104;-89
2023/04/02 04:32:13;;;;;;;14.48;7.50;;;9.60;99.90;;;;;;4991777;28;20401;-88
2023/04/02 04:34:52;;;;;;;14.23;7.18;;;9.50;99.90;;;;;;4986897;28;20029;-90
2023/04/02 04:37:34;;;;;;;14.27;7.68;;;9.50;99.90;;;;;;4994759;28;20022;-90
2023/04/02 04:40:31;;;;;;;15.07;8.00;;;9.50;99.90;;;;;;5011117;28;20104;-88
2023/04/02 04:43:03;;;;;;;15.83;8.00;;;9.50;99.90;;;;;;4966465;28;20466;-88
2023/04/02 04:45:45;;;;;;;13.50;6.68;;;9.50;99.90;;;;;;5008495;28;20714;-87
2023/04/02 04:48:20;;;;;;;15.80;8.70;;;9.50;99.90;;;;;;4989186;28;20109;-89
2023/04/02 04:51:00;;;;;;;14.65;8.30;;;9.50;99.90;;;;;;5020136;28;20037;-89
2023/04/02 04:53:28;;;;;;;14.35;8.20;;;9.40;99.90;;;;;;5006505;28;20395;-88
2023/04/02 04:56:01;;;;;;;12.83;7.30;;;9.40;99.90;;;;;;5004157;28;20526;-89
2023/04/02 04:58:39;;;;;;;11.30;6.88;;;9.30;99.90;;;;;;4984139;28;20025;-89
2023/04/02 05:01:14;;;;;;;14.23;6.78;;;9.30;99.90;;;;;;5012550;28;20071;-88
2023/04/02 05:03:49;;;;;;;10.48;6.18;;;9.30;99.90;;;;;;4991064;28;20029;-89
2023/04/02 05:06:35;;;;;;;11.55;6.47;;;9.30;99.90;;;;;;5013003;28;20029;-88
2023/04/02 05:09:19;;;;;;;10.70;6.07;;;9.30;99.90;;;;;;4976474;28;20044;-91
2023/04/02 05:12:17;;;;;;;10.50;5.90;;;9.30;99.90;;;;;;4991322;28;20298;-88
2023/04/02 05:14:55;;;;;;;11.77;6.45;;;9.30;99.90;;;;;;4970345;28;20022;-89
2023/04/02 05:17:32;;;;;;;11.45;6.13;;;9.30;99.90;;;;;;5001825;28;20026;-88
2023/04/02 05:20:15;;;;;;;9.90;5.82;;;9.30;99.90;;;;;;5012898;28;20270;-90
2023/04/02 05:22:52;;;;;;;12.73;7.33;;;9.30;99.90;;;;;;5007002;28;20076;-88
2023/04/02 05:25:17;;;;;;;10.13;6.22;;;9.20;99.90;;;;;;5008024;28;20022;-87
2023/04/02 05:28:06;;;;;;;12.88;7.18;;;9.30;99.90;;;;;;5012821;28;20717;-88
2023/04/02 05:30:37;;;;;;;9.30;5.67;;;9.20;99.90;;;;;;4991524;28;20037;-89
2023/04/02 05:33:14;;;;;;;10.45;5.90;;;9.20;99.90;;;;;;4999201;28;20086;-89
2023/04/02 05:35:46;;;;;;;11.77;6.80;;;9.20;99.90;;;;;;5033553;28;20028;-88
2023/04/02 05:38:33;;;;;;;10.85;6.25;;;9.20;99.90;;;;;;5004564;28;20038;-89
2023/04/02 05:41:01;;;;;;;11.18;6.00;;;9.20;99.90;;;;;;4987008;28;20022;-89
2023/04/02 05:43:31;;;;;;;12.63;7.63;;;9.20;99.90;;;;;;5012983;28;20059;-89
2023/04/02 05:46:01;;;;;;;11.60;6.13;;;9.20;99.90;;;;;;4995120;28;20218;-88
2023/04/02 05:48:39;;;;;;;11.55;6.40;;;9.20;99.90;;;;;;5022141;28;20505;-87
2023/04/02 05:51:10;;;;;;;9.30;5.53;;;9.10;99.90;;;;;;5011768;28;20456;-90
2023/04/02 05:53:45;;;;;;;8.60;4.82;;;9.20;99.90;;;;;;4993687;28;20054;-89
2023/04/02 05:56:19;;;;;;;11.63;6.13;;;9.10;99.90;;;;;;5004409;28;20021;-89
2023/04/02 05:59:20;;;;;;;10.73;5.82;;;9.10;99.90;;;;;;5018064;28;20033;-89
2023/04/02 06:02:18;;;;;;;10.43;6.03;;;9.20;99.90;;;;;;4955174;28;20136;-88
2023/04/02 06:04:57;;;;;;;10.73;5.50;;;9.20;99.90;;;;;;4990901;28;20537;-90
2023/04/02 06:07:43;;;;;;;10.23;6.07;;;9.10;99.90;;;;;;5019237;28;20027;-88
2023/04/02 06:10:17;;;;;;;10.87;6.00;;;9.10;99.90;;;;;;4996890;28;20078;-89
2023/04/02 06:12:46;;;;;;;11.77;5.72;;;9.20;99.90;;;;;;5001467;28;20132;-88
2023/04/02 06:15:14;;;;;;;11.25;6.03;;;9.10;99.90;;;;;;4998004;28;20327;-88
2023/04/02 06:17:50;;;;;;;12.38;6.70;;;9.10;99.90;;;;;;4998766;28;20030;-88
2023/04/02 06:20:18;;;;;;;12.18;6.95;;;9.10;99.90;;;;;;5006564;28;20057;-87
2023/04/02 06:22:48;;;;;;;10.80;5.83;;;9.10;99.90;;;;;;5012695;28;20066;-89
2023/04/02 06:25:27;;;;;;;11.95;7.32;;;9.10;99.90;;;;;;5012273;28;20036;-89
2023/04/02 06:27:56;;;;;;;10.43;5.82;;;9.10;99.90;;;;;;5010234;28;20403;-90
2023/04/02 06:30:27;;;;;;;10.85;6.18;;;9.10;99.90;;;;;;4998853;28;20440;-88
2023/04/02 06:32:52;;;;;;;11.25;6.22;;;9.00;99.90;;;;;;5013927;28;20100;-90
2023/04/02 06:35:18;;;;;;;9.70;5.80;;;9.00;99.90;;;;;;4995746;28;20028;-90
2023/04/02 06:37:47;;;;;;;9.73;5.65;;;9.00;99.90;;;;;;5001797;28;20320;-90
2023/04/02 06:40:33;;;;;;;9.30;5.45;;;9.00;99.90;;;;;;4997802;28;20021;-89
2023/04/02 06:43:05;;;;;;;9.63;5.23;;;8.90;99.90;;;;;;4973431;28;20133;-90
2023/04/02 06:45:40;;;;;;;9.80;5.80;;;8.90;99.90;;;;;;4987882;28;20540;-88
2023/04/02 06:48:16;;;;;;;9.88;5.93;;;8.90;99.90;;;;;;4989801;28;20024;-90
2023/04/02 06:50:55;;;;;;;9.23;5.55;;;8.90;99.90;;;;;;4989172;28;21225;-89
2023/04/02 06:53:48;;;;;;;8.95;5.30;;;8.90;99.90;;;;;;4999936;28;20132;-88
2023/04/02 06:56:38;;;;;;;7.97;5.03;;;8.90;99.90;;;;;;5013339;28;20120;-88
2023/04/02 06:59:06;;;;;;;7.20;4.70;;;8.90;99.90;;;;;;5000768;28;20517;-89
2023/04/02 07:01:37;;;;;;;7.47;4.50;;;8.80;99.90;;;;;;4984725;28;20048;-88
2023/04/02 07:04:03;;;;;;;7.63;4.00;;;8.80;99.90;;;;;;5014563;28;20495;-89
2023/04/02 07:06:29;;;;;;;5.85;3.55;;;8.80;99.90;;;;;;5013924;28;20569;-89
2023/04/02 07:08:55;;;;;;;6.07;3.60;;;8.80;99.90;;;;;;5026900;28;20119;-90
2023/04/02 07:11:21;;;;;;;6.15;3.88;;;8.80;99.90;;;;;;5002133;28;20028;-87
2023/04/02 07:13:48;;;;;;;5.47;3.40;;;8.80;99.90;;;;;;4984805;28;20297;-89
2023/04/02 07:16:17;;;;;;;6.53;4.20;;;8.70;99.90;;;;;;5014342;28;20025;-90
2023/04/02 07:18:44;;;;;;;7.93;4.40;;;8.80;99.90;;;;;;4995178;28;20231;-88
2023/04/02 07:21:09;;;;;;;8.73;4.97;;;8.80;99.90;;;;;;5006771;28;20107;-89
2023/04/02 07:23:36;;;;;;;8.90;4.70;;;8.80;99.90;;;;;;4991134;28;20048;-88
2023/04/02 07:26:02;;;;;;;6.82;4.28;;;8.70;99.90;;;;;;5008797;28;20029;-89
2023/04/02 07:28:28;;;;;;;8.10;4.30;;;8.80;99.90;;;;;;5006023;28;20042;-90
2023/04/02 07:30:54;;;;;;;8.70;4.60;;;8.80;99.90;;;;;;5005944;28;20477;-89
2023/04/02 07:33:22;;;;;;;7.95;4.95;;;8.80;99.90;;;;;;4992031;28;20109;-87
2023/04/02 07:35:49;;;;;;;8.52;5.28;;;8.70;99.90;;;;;;4984667;28;20462;-89
2023/04/02 07:38:15;;;;;;;7.67;4.83;;;8.70;99.90;;;;;;4995824;28;20021;-91
2023/04/02 07:40:41;;;;;;;7.78;4.88;;;8.80;99.90;;;;;;5013991;28;20030;-87
2023/04/02 07:43:07;;;;;;;8.07;4.60;;;8.80;99.90;;;;;;4992096;28;20026;-90
2023/04/02 07:45:33;;;;;;;8.48;4.80;;;8.70;99.90;;;;;;4979688;28;20371;-89
2023/04/02 07:48:11;;;;;;;8.00;4.17;;;8.80;99.90;;;;;;4990716;28;20272;-91
2023/04/02 07:50:36;;;;;;;7.80;4.40;;;8.80;99.90;;;;;;4996493;28;20043;-89
2023/04/02 07:53:03;;;;;;;7.28;4.22;;;8.80;99.90;;;;;;4976246;28;20250;-89
2023/04/02 07:55:28;;;;;;;6.53;3.88;;;8.80;99.90;;;;;;4997538;28;20064;-89
2023/04/02 07:57:57;;;;;;;8.43;4.30;;;8.80;99.90;;;;;;5008010;28;20057;-87
2023/04/02 08:00:24;;;;;;;9.88;4.95;;;8.80;99.90;;;;;;5004033;28;20619;-90
2023/04/02 08:02:50;;;;;;;7.43;4.05;;;8.80;99.90;;;;;;4983836;28;20344;-89
2023/04/02 08:05:16;;;;;;;8.43;4.80;;;8.90;99.90;;;;;;4980615;28;20021;-88
2023/04/02 08:07:43;;;;;;;11.35;6.25;;;8.90;99.90;;;;;;5006007;28;20034;-90
2023/04/02 08:10:11;;;;;;;10.23;6.05;;;8.90;99.90;;;;;;5015685;28;20036;-89
2023/04/02 08:12:37;;;;;;;12.30;6.40;;;8.90;99.90;;;;;;4994314;28;20024;-89
2023/04/02 08:15:06;;;;;;;13.38;7.30;;;8.90;99.90;;;;;;4985052;28;20120;-89
2023/04/02 08:17:32;;;;;;;12.53;7.07;;;8.90;99.90;;;;;;5010662;28;20049;-89
2023/04/02 08:20:00;;;;;;;13.18;7.18;;;8.90;99.90;;;;;;4978148;28;20713;-91
2023/04/02 08:22:27;;;;;;;13.57;7.25;;;9.00;99.90;;;;;;5002150;28;20060;-89
2023/04/02 08:24:53;;;;;;;11.67;7.00;;;8.90;99.90;;;;;;4980586;28;20437;-89
2023/04/02 08:27:19;;;;;;;11.05;6.60;;;8.90;99.90;;;;;;5004823;28;20525;-90
2023/04/02 08:29:45;;;;;;;12.55;6.65;;;8.90;99.90;;;;;;5008934;28;20026;-91
2023/04/02 08:32:17;;;;;;;12.30;6.43;;;8.90;99.90;;;;;;5002279;28;20424;-89
2023/04/02 08:34:43;;;;;;;12.55;6.88;;;8.90;99.90;;;;;;4993739;28;20028;-89
2023/04/02 08:37:13;;;;;;;11.10;6.60;;;8.80;99.90;;;;;;4968404;28;20025;-90
2023/04/02 08:39:39;;;;;;;10.75;6.25;;;8.90;99.90;;;;;;4983185;28;20064;-90
2023/04/02 08:42:35;;;;;;;10.57;6.53;;;8.90;99.90;;;;;;4996746;28;20026;-91
2023/04/02 08:45:11;;;;;;;10.73;6.53;;;8.90;99.90;;;;;;4990552;28;20236;-88
2023/04/02 08:47:39;;;;;;;11.70;6.20;;;8.90;99.90;;;;;;4981793;28;20446;-90
2023/04/02 08:50:11;;;;;;;10.30;6.18;;;8.90;99.90;;;;;;5013359;28;20025;-89
2023/04/02 08:52:37;;;;;;;9.30;5.30;;;8.90;99.90;;;;;;4992168;28;20662;-87
2023/04/02 08:55:24;;;;;;;9.75;5.65;;;8.90;99.90;;;;;;5006723;28;20080;-89
2023/04/02 08:58:00;;;;;;;9.95;5.38;;;8.90;99.90;;;;;;4983576;28;20258;-89
2023/04/02 09:00:37;;;;;;;7.93;4.97;;;8.90;99.90;;;;;;5008448;28;20518;-90
2023/04/02 09:03:16;;;;;;;10.07;5.97;;;8.90;99.90;;;;;;4998679;28;20034;-90
2023/04/02 09:05:44;;;;;;;10.83;5.43;;;8.90;99.90;;;;;;4999189;28;20029;-89
2023/04/02 09:08:21;;;;;;;8.65;4.68;;;8.90;99.90;;;;;;4963653;28;20024;-89
2023/04/02 09:10:57;;;;;;;7.95;4.65;;;8.90;99.90;;;;;;4995752;28;20251;-90
2023/04/02 09:13:26;;;;;;;9.35;5.00;;;8.80;99.90;;;;;;4992951;28;20091;-89
2023/04/02 09:16:15;;;;;;;6.50;4.20;;;8.80;99.90;;;;;;5006903;28;20228;-89
2023/04/02 09:18:42;;;;;;;7.00;4.40;;;8.80;99.90;;;;;;5012607;28;20029;-89
2023/04/02 09:21:20;;;;;;;6.75;3.80;;;8.80;99.90;;;;;;4996215;28;20513;-91
2023/04/02 09:23:47;;;;;;;5.22;3.50;;;8.80;99.90;;;;;;4971200;28;20071;-87
2023/04/02 09:26:28;;;;;;;5.07;3.35;;;8.80;99.90;;;;;;4974063;28;20120;-90
2023/04/02 09:29:12;;;;;;;6.88;4.28;;;8.70;99.90;;;;;;4987166;28;20059;-90
2023/04/02 09:31:49;;;;;;;7.30;4.07;;;8.80;99.90;;;;;;5005288;28;20448;-91
2023/04/02 09:34:28;;;;;;;6.72;4.03;;;8.70;99.90;;;;;;4980118;28;20326;-89
2023/04/02 09:36:55;;;;;;;5.18;3.63;;;8.70;99.90;;;;;;5009382;28;20029;-87
2023/04/02 09:39:25;;;;;;;6.75;3.75;;;8.80;99.90;;;;;;4981222;28;20667;-89
2023/04/02 09:41:51;;;;;;;5.78;3.63;;;8.70;99.90;;;;;;4986447;28;20824;-89
2023/04/02 09:44:23;;;;;;;5.10;3.20;;;8.80;99.90;;;;;;4997463;28;20034;-88
2023/04/02 09:47:03;;;;;;;4.93;3.17;;;8.80;99.90;;;;;;4988638;28;20463;-89
2023/04/02 09:49:34;;;;;;;5.30;3.15;;;8.80;99.90;;;;;;5003752;28;20106;-89
2023/04/02 09:52:18;;;;;;;5.40;3.25;;;8.90;99.90;;;;;;4983960;28;20548;-89
2023/04/02 09:54:45;;;;;;;4.93;3.30;;;8.90;99.90;;;;;;4997531;28;20045;-89
2023/04/02 09:57:26;;;;;;;4.93;3.20;;;8.90;99.90;;;;;;4989496;28;20104;-90
2023/04/02 10:00:15;;;;;;;5.68;3.70;;;9.00;99.90;;;;;;4987024;28;20379;-90
2023/04/02 10:02:42;;;;;;;6.55;3.50;;;9.10;99.90;;;;;;5001349;28;20073;-86
2023/04/02 10:05:19;;;;;;;6.47;3.20;;;9.10;99.90;;;;;;4976761;28;20536;-89
2023/04/02 10:07:48;;;;;;;4.60;2.90;;;9.10;99.90;;;;;;4989522;28;20036;-88
2023/04/02 10:10:19;;;;;;;4.80;2.80;;;9.20;99.90;;;;;;4979671;28;20022;-90
2023/04/02 10:12:52;;;;;;;3.92;2.45;;;9.30;99.90;;;;;;4989443;28;20306;-89
2023/04/02 10:15:26;;;;;;;5.25;2.90;;;9.30;99.90;;;;;;4998911;28;20094;-88
2023/04/02 10:18:14;;;;;;;4.82;3.10;;;9.40;99.90;;;;;;5006331;28;20045;-90
2023/04/02 10:20:42;;;;;;;5.15;2.78;;;9.40;99.90;;;;;;4999685;28;20427;-88
2023/04/02 10:23:18;;;;;;;4.40;2.60;;;9.50;99.90;;;;;;5004674;28;20223;-90
2023/04/02 10:26:06;;;;;;;3.63;2.50;;;9.50;99.90;;;;;;4976128;28;20538;-88
2023/04/02 10:29:01;;;;;;;4.60;2.50;;;9.60;99.90;;;;;;5009314;28;20050;-92
2023/04/02 10:31:40;;;;;;;4.07;2.53;;;9.70;99.90;;;;;;5014335;28;20045;-90
2023/04/02 10:34:41;;;;;;;4.38;2.60;;;9.60;99.90;;;;;;5012242;28;20514;-89
2023/04/02 10:37:39;;;;;;;4.47;2.40;;;9.70;99.90;;;;;;4983475;28;20538;-90
2023/04/02 10:40:08;;;;;;;4.35;2.50;;;9.70;99.90;;;;;;4978026;28;21616;-88
2023/04/02 10:42:57;;;;;;;4.15;2.40;;;9.70;99.90;;;;;;5011137;28;20033;-92
2023/04/02 10:45:42;;;;;;;4.22;2.47;;;9.80;99.90;;;;;;4985286;28;20079;-89
2023/04/02 10:48:32;;;;;;;3.92;2.53;;;9.70;99.90;;;;;;4982845;28;20243;-88
2023/04/02 10:51:02;;;;;;;3.40;2.27;;;9.80;99.90;;;;;;4979230;28;20336;-91
2023/04/02 10:53:57;;;;;;;4.28;2.50;;;9.80;99.90;;;;;;5011507;28;20018;-88
2023/04/02 10:56:25;;;;;;;4.43;2.90;;;9.80;99.90;;;;;;4974174;28;20108;-89
2023/04/02 10:59:01;;;;;;;4.18;2.50;;;9.80;99.90;;;;;;5010727;28;20034;-91
2023/04/02 11:01:29;;;;;;;5.28;2.67;;;9.80;99.90;;;;;;5000454;28;20021;-90
2023/04/02 11:04:07;;;;;;;3.13;2.43;;;9.80;99.90;;;;;;4987101;28;20052;-90
2023/04/02 11:06:42;;;;;;;4.00;2.63;;;9.90;99.90;;;;;;4993019;28;20040;-89
2023/04/02 11:09:19;;;;;;;4.38;2.65;;;9.80;99.90;;;;;;5020133;28;20234;-88
2023/04/02 11:11:50;;;;;;;4.30;2.50;;;9.90;99.90;;;;;;5002514;28;20143;-87
2023/04/02 11:14:32;;;;;;;4.40;2.80;;;9.90;99.90;;;;;;5013582;28;20025;-91
2023/04/02 11:17:01;;;;;;;4.47;2.50;;;9.90;99.90;;;;;;5001237;28;20025;-92
2023/04/02 11:19:34;;;;;;;2.63;1.95;;;10.00;99.90;;;;;;5000060;28;20021;-88
2023/04/02 11:22:17;;;;;;;3.35;2.30;;;10.00;99.90;;;;;;4979369;28;20037;-93
2023/04/02 11:24:51;;;;;;;4.43;2.08;;;10.00;99.90;;;;;;5017571;28;20041;-90
2023/04/02 11:27:28;;;;;;;2.80;2.00;;;10.00;99.90;;;;;;4992246;28;20048;-90
2023/04/02 11:30:23;;;;;;;5.63;2.60;;;10.00;99.90;;;;;;4989003;28;20073;-91
2023/04/02 11:32:49;;;;;;;2.78;1.95;;;10.10;99.90;;;;;;5001176;28;20608;-92
2023/04/02 11:35:30;;;;;;;5.60;2.20;;;10.10;99.90;;;;;;4996320;28;20017;-90
2023/04/02 11:38:20;;;;;;;3.03;2.05;;;10.10;99.90;;;;;;4981103;28;20182;-91
2023/04/02 11:40:53;;;;;;;4.72;2.47;;;10.10;99.90;;;;;;4960633;28;20041;-91
2023/04/02 11:43:35;;;;;;;3.60;2.37;;;10.10;99.90;;;;;;5007193;28;20021;-91
2023/04/02 11:46:20;;;;;;;4.25;2.60;;;10.10;99.90;;;;;;4976053;28;20385;-89
2023/04/02 11:48:45;;;;;;;3.22;2.35;;;10.10;99.90;;;;;;4981854;28;20049;-89
2023/04/02 11:51:21;;;;;;;3.50;2.40;;;10.10;99.90;;;;;;5000642;28;20076;-90
2023/04/02 11:53:52;;;;;;;2.70;1.97;;;10.00;99.90;;;;;;4982599;28;20041;-90
2023/04/02 11:56:38;;;;;;;2.60;1.90;;;10.00;99.90;;;;;;4996484;28;21338;-90
2023/04/02 11:59:35;;;;;;;3.17;2.10;;;10.00;99.90;;;;;;5023013;28;20310;-90
2023/04/02 12:02:46;;;;;;;3.30;1.98;;;10.00;99.90;;;;;;4986093;28;20041;-90
2023/04/02 12:05:35;;;;;;;3.35;2.28;;;10.00;99.90;;;;;;4986887;28;20029;-88
2023/04/02 12:08:27;;;;;;;3.40;2.10;;;10.00;99.90;;;;;;4992853;28;20235;-89
2023/04/02 12:10:56;;;;;;;3.65;2.40;;;10.00;99.90;;;;;;4975667;28;20034;-90
2023/04/02 12:13:40;;;;;;;2.75;1.88;;;10.00;99.90;;;;;;5012856;28;20026;-90
2023/04/02 12:16:11;;;;;;;3.58;2.17;;;10.00;99.90;;;;;;4991119;28;21952;-90
2023/04/02 12:18:45;;;;;;;3.67;2.20;;;10.00;99.90;;;;;;5023980;28;20036;-92
2023/04/02 12:21:20;;;;;;;4.20;2.40;;;10.00;99.90;;;;;;4995994;28;20594;-90
2023/04/02 12:23:47;;;;;;;2.97;2.05;;;10.00;99.90;;;;;;4984720;28;20495;-92
2023/04/02 12:26:30;;;;;;;3.22;2.00;;;10.00;99.90;;;;;;5005166;28;20234;-90
2023/04/02 12:29:15;;;;;;;3.35;2.15;;;10.00;99.90;;;;;;5002280;28;20087;-90
2023/04/02 12:31:46;;;;;;;4.10;2.90;;;10.00;99.90;;;;;;4991494;28;20188;-92
2023/04/02 12:34:15;;;;;;;3.30;2.20;;;10.10;99.90;;;;;;4989369;28;20106;-90
2023/04/02 12:37:03;;;;;;;3.80;2.50;;;10.10;99.90;;;;;;4990559;28;20029;-88
2023/04/02 12:39:33;;;;;;;3.00;2.08;;;10.10;99.90;;;;;;4977760;28;20571;-90
2023/04/02 12:41:59;;;;;;;2.45;1.90;;;10.20;99.90;;;;;;4998710;28;20057;-90
2023/04/02 12:44:27;;;;;;;5.35;2.75;;;10.30;99.90;;;;;;4996754;28;20461;-87
2023/04/02 12:46:54;;;;;;;3.20;2.20;;;10.30;99.90;;;;;;4992887;28;20040;-92
2023/04/02 12:49:33;;;;;;;3.45;2.10;;;10.30;99.90;;;;;;4993338;28;20494;-89
2023/04/02 12:52:02;;;;;;;3.65;2.00;;;10.40;99.90;;;;;;5007685;28;20033;-91
2023/04/02 12:54:33;;;;;;;4.13;2.50;;;10.40;99.90;;;;;;4997752;28;20032;-87
2023/04/02 12:57:19;;;;;;;3.80;2.30;;;10.40;99.90;;;;;;4970025;28;20760;-90
2023/04/02 12:59:45;;;;;;;2.43;2.00;;;10.40;99.90;;;;;;5003745;28;20616;-91
2023/04/02 13:02:20;;;;;;;3.50;2.10;;;10.40;99.90;;;;;;4980205;28;20067;-87
2023/04/02 13:04:50;;;;;;;2.75;2.00;;;10.40;99.90;;;;;;4978482;28;20530;-91
2023/04/02 13:07:18;;;;;;;2.73;1.87;;;10.50;99.90;;;;;;4990659;28;20033;-90
2023/04/02 13:09:52;;;;;;;3.42;2.05;;;10.50;99.90;;;;;;5000863;28;21120;-91
2023/04/02 13:12:26;;;;;;;4.15;2.05;;;10.50;99.90;;;;;;4982975;28;20048;-90
2023/04/02 13:14:56;;;;;;;3.75;2.22;;;10.60;99.90;;;;;;5000267;28;20022;-92
2023/04/02 13:17:47;;;;;;;3.72;2.38;;;10.60;99.90;;;;;;4998052;28;20021;-91
2023/04/02 13:20:33;;;;;;;2.33;1.93;;;10.70;99.90;;;;;;4995192;28;20021;-88
2023/04/02 13:23:02;;;;;;;3.28;2.38;;;10.70;99.90;;;;;;5002297;28;20033;-89
2023/04/02 13:25:35;;;;;;;3.10;2.05;;;10.70;99.90;;;;;;5004675;28;20021;-88
2023/04/02 13:28:01;;;;;;;2.70;2.00;;;10.70;99.90;;;;;;4991279;28;20162;-91
2023/04/02 13:30:27;;;;;;;4.53;2.57;;;10.80;99.90;;;;;;4993326;28;20026;-88
2023/04/02 13:32:54;;;;;;;3.90;2.83;;;10.80;99.90;;;;;;5010651;28;20120;-90